This is the latest recevied weather packets stored in our database for station/object OSTR-WX. If no packets are shown the sender has not sent any weather packets the latest 10 day(s).
| Time | Temp. | Humidity | Pressure | Rain* | Wind** | Luminosity | Snow |
|---|---|---|---|---|---|---|---|
| 1777789867 | 13.33° C | 68% | 1020.7 hPa | - | - | - | - |
| 1777788917 | 11.67° C | 74% | 1020.9 hPa | - | - | - | - |
| 1777788911 | 11.67° C | 74% | 1020.9 hPa | - | - | - | - |
| 1777787959 | 11.11° C | 78% | 1021 hPa | - | - | - | - |
| 1777787953 | 11.11° C | 78% | 1021 hPa | - | - | - | - |
| 1777786996 | 8.89° C | 85% | 1021.2 hPa | - | - | - | - |
| 1777786045 | 7.78° C | 88% | 1021.3 hPa | - | - | - | - |
| 1777786039 | 7.78° C | 88% | 1021.3 hPa | - | - | - | - |
| 1777785092 | 6.11° C | - | - | - | - | - | - |
| 1777785089 | 6.11° C | 93% | 1021.6 hPa | - | - | - | - |
| 1777785082 | 6.11° C | 93% | 1021.6 hPa | - | - | - | - |
| 1777784125 | 5° C | 94% | 1021.7 hPa | - | - | - | - |
| 1777783168 | 4.44° C | 94% | 1021.8 hPa | - | - | - | - |
| 1777782211 | 3.89° C | 93% | 1021.8 hPa | - | - | - | - |
| 1777781254 | 3.33° C | 93% | 1021.8 hPa | - | - | - | - |
| 1777780304 | 3.33° C | 93% | 1021.8 hPa | - | - | - | - |
| 1777780297 | 3.33° C | 93% | 1021.8 hPa | - | - | - | - |
| 1777779341 | 3.33° C | 93% | 1021.6 hPa | - | - | - | - |
| 1777778389 | 3.33° C | 93% | 1021.6 hPa | - | - | - | - |
| 1777778383 | 3.33° C | 93% | 1021.6 hPa | - | - | - | - |
| 1777777434 | 3.33° C | 92% | 1021.6 hPa | - | - | - | - |
| 1777777427 | 3.33° C | 92% | 1021.6 hPa | - | - | - | - |
| 1777776469 | 3.33° C | 92% | 1021.7 hPa | - | - | - | - |
| 1777775512 | 3.33° C | 92% | 1021.7 hPa | - | - | - | - |
| 1777774563 | 3.33° C | 92% | 1021.6 hPa | - | - | - | - |
* Rain since midnight (hover to see other rain measurements)
** Current wind speed in m/s (hover to see current wind gust speed)